Local Weather (KHSI) Ticker

20 January 2022

2022/05/25 15:53 KHSI 251553Z AUTO 02018G29KT 10SM OVC009 09/08 A2987 RMK AO2 PK WND 02029/1547 SLP116 T00940083

Click below to find out what a METAR file is and how to read it:



Feature Requests: